Aeroporto :
LOGIN :

Iscrizione | Disclaimer

   EN    FR    IT 

 










Sommario :    VFR   VFR Marginale   IFR   IFR Intensivo   IFR Molto Intensivo
Visibilità : 
Base nubi : 
>= 8 km
>= 3000ft
5 / 8 km
1000 / 3000 ft
1500m / 5 km
500 / 1000 ft
800 / 1500m
200 / 500 ft
< 800m
< 200 ft
Simboli :   Temporali  Nebbia  Neve Forte  Precipitazioni Forti  Vento > 20 kt
SIGMETs :   Varie  Temporali  Ghiacco  Turbolenza  Onda orograficha  Ceneri Vulcaniche






- Altitudine del aeroporto : 13 ft
- Codice IATA : LYX


EGMD - Lydd

ULTIMO METAR :
  • 040650Z AUTO 34012KT 9999 FEW013/// BKN017/// OVC023/// 12/11 Q1003

METARs OBSOLETI :
  • 040620Z AUTO 34012KT 7000 SCT007/// BKN011/// OVC016/// 12/11 Q1003
  • 040550Z AUTO 35012KT 9999 BKN013/// OVC041/// 13/11 Q1003
  • 040520Z AUTO 35011KT 9999 SCT013/// BKN027/// OVC044/// 12/11 Q1002
  • 040450Z AUTO 35010KT 9999 BKN013/// OVC045/// 12/11 Q1003
  • 040420Z AUTO 35011KT 9999 BKN014/// BKN018/// BKN033/// 13/11 Q1003

TAF TAF EGMD
Valido dal 04 a 03 ore il 04 a 12 ore UTC


040156Z 0403/0412 33011KT 9999 SCT025
TEMPO 0403/0412 8000 -RA BKN014
PROB30
TEMPO 0403/0407 RA
ATIS : +44 1797 322 422



MetMap, La meteo Aeronautica in un colpo d'occhio ! - Copyright ORBIFLY Dicembre 2007 - Disclaimer

ORBIFLY MET'MAP TEAM :

Programmazione e sviluppo : Alexandra Zaïnal
Concezione : Baudouin d'Aumeries
Aiuto per la programmazione : Marc-Olivier Méhu
Supporto tecnico e logistico : Manuel Goepfert
Aiuto per la traduzione : Arnaldo La Scala

Contatto : metmap@orbifly.com




FONTI E CREDITI :

   NOAA